createdAt,value
2022-11-24T00:00:02.302Z,1.38
2022-11-24T00:00:40.017Z,1.39
2022-11-24T00:01:31.591Z,1.40
2022-11-24T00:02:05.016Z,1.40
2022-11-24T00:02:38.428Z,1.43
2022-11-24T00:03:12.220Z,1.43
2022-11-24T00:03:47.827Z,1.44
2022-11-24T00:04:22.976Z,1.47
2022-11-24T00:04:57.063Z,1.47
2022-11-24T00:05:30.396Z,1.49
2022-11-24T00:06:09.601Z,1.51
2022-11-24T00:06:43.012Z,1.52
2022-11-24T00:07:16.769Z,1.55
2022-11-24T00:07:50.122Z,1.55
2022-11-24T00:08:23.439Z,1.56
2022-11-24T00:08:57.205Z,1.57
2022-11-24T00:09:31.134Z,1.58
2022-11-24T00:10:08.583Z,1.60
2022-11-24T00:10:42.042Z,1.62
2022-11-24T00:11:17.833Z,1.65
2022-11-24T00:11:51.147Z,1.65
2022-11-24T00:12:24.530Z,1.66
2022-11-24T00:12:57.884Z,1.67
2022-11-24T00:13:31.209Z,1.68
2022-11-24T00:14:07.570Z,1.70
2022-11-24T00:14:43.395Z,1.71
2022-11-24T00:15:16.852Z,1.71
2022-11-24T00:15:51.096Z,1.72
2022-11-24T00:16:27.044Z,1.74
2022-11-24T00:17:00.503Z,1.72
2022-11-24T00:17:34.014Z,1.76
2022-11-24T00:18:07.363Z,1.77
2022-11-24T00:18:42.546Z,1.78
2022-11-24T00:19:19.793Z,1.80
2022-11-24T00:19:53.563Z,1.80
2022-11-24T00:20:27.387Z,1.82
2022-11-24T00:21:00.980Z,1.85
2022-11-24T00:21:34.279Z,1.84
2022-11-24T00:22:07.817Z,1.84
2022-11-24T00:22:41.323Z,1.84
2022-11-24T00:23:14.645Z,1.85
2022-11-24T00:23:48.874Z,1.85
2022-11-24T00:24:22.264Z,1.86
2022-11-24T00:24:55.539Z,1.87
2022-11-24T00:25:28.906Z,1.89
2022-11-24T00:26:32.036Z,1.89
2022-11-24T00:27:06.376Z,1.86
2022-11-24T00:27:39.713Z,1.88
2022-11-24T00:28:13.222Z,1.88
2022-11-24T00:28:47.852Z,1.91
2022-11-24T00:29:21.303Z,1.93
2022-11-24T00:29:54.644Z,1.94
2022-11-24T00:30:28.107Z,1.93
2022-11-24T00:31:02.768Z,1.95
2022-11-24T00:31:39.318Z,1.97
2022-11-24T00:32:12.551Z,1.97
2022-11-24T00:32:45.856Z,1.99
2022-11-24T00:33:19.147Z,1.99
2022-11-24T00:33:54.459Z,2.01
2022-11-24T00:34:27.685Z,2.02
2022-11-24T00:35:01.484Z,2.04
2022-11-24T00:35:34.814Z,2.06
2022-11-24T00:36:08.373Z,2.07
2022-11-24T00:36:42.592Z,2.05
2022-11-24T00:37:15.967Z,2.09
2022-11-24T00:37:49.314Z,2.11
2022-11-24T00:38:22.755Z,2.13
2022-11-24T00:39:01.022Z,2.14
2022-11-24T00:39:34.433Z,2.16
2022-11-24T00:40:08.670Z,2.16
2022-11-24T00:40:43.104Z,2.16
2022-11-24T00:41:16.492Z,2.17
2022-11-24T00:41:49.945Z,2.17
2022-11-24T00:42:23.148Z,2.18
2022-11-24T00:42:56.446Z,2.20
2022-11-24T00:43:29.728Z,2.21
2022-11-24T00:44:03.596Z,2.21
2022-11-24T00:44:36.899Z,2.22
2022-11-24T00:49:32.646Z,2.03
2022-11-24T00:50:06.633Z,1.95
2022-11-24T00:50:40.482Z,1.92
2022-11-24T00:51:16.385Z,1.94
2022-11-24T00:51:50.085Z,1.95
2022-11-24T00:52:23.774Z,2.04
2022-11-24T00:52:57.896Z,2.12
2022-11-24T00:53:32.255Z,2.20
2022-11-24T00:54:06.912Z,2.11
2022-11-24T00:54:43.353Z,2.02
2022-11-24T00:55:17.557Z,2.00
2022-11-24T00:55:52.195Z,2.04
2022-11-24T00:56:27.519Z,2.05
2022-11-24T00:57:01.501Z,2.04
2022-11-24T00:57:36.094Z,2.02
2022-11-24T00:58:09.834Z,2.04
2022-11-24T00:58:43.903Z,2.11
2022-11-24T00:59:17.668Z,2.13
2022-11-24T00:59:53.807Z,2.12
2022-11-24T01:00:27.654Z,2.09
2022-11-24T01:01:22.667Z,2.09
2022-11-24T01:01:56.535Z,2.03
2022-11-24T01:02:30.271Z,2.10
2022-11-24T01:03:03.791Z,2.08
2022-11-24T01:03:37.349Z,2.04
2022-11-24T01:04:10.858Z,2.03
2022-11-24T01:04:44.337Z,2.02
2022-11-24T01:05:17.693Z,2.05
2022-11-24T01:05:51.022Z,2.04
2022-11-24T01:06:26.896Z,2.07
2022-11-24T01:07:00.755Z,2.07
2022-11-24T01:07:34.116Z,2.08
2022-11-24T01:08:08.140Z,2.09
2022-11-24T01:08:41.832Z,2.11
2022-11-24T01:09:15.269Z,2.16
2022-11-24T01:09:49.129Z,2.12
2022-11-24T01:10:22.392Z,2.13
2022-11-24T01:11:06.097Z,2.12
2022-11-24T01:11:58.173Z,2.10
2022-11-24T01:12:34.637Z,2.06
2022-11-24T01:13:07.897Z,2.11
2022-11-24T01:13:42.776Z,2.12
2022-11-24T01:14:16.207Z,2.10
2022-11-24T01:14:50.248Z,2.12
2022-11-24T01:15:23.971Z,2.11
2022-11-24T01:15:58.841Z,2.09
2022-11-24T01:16:35.432Z,2.09
2022-11-24T01:17:08.724Z,2.10
2022-11-24T01:17:42.065Z,2.12
2022-11-24T01:18:15.497Z,2.11
2022-11-24T01:18:49.354Z,2.11
2022-11-24T01:19:25.709Z,2.12
2022-11-24T01:19:58.923Z,2.17
2022-11-24T01:20:33.115Z,2.14
2022-11-24T01:21:10.078Z,2.13
2022-11-24T01:21:43.922Z,2.14
2022-11-24T01:22:20.374Z,2.14
2022-11-24T01:22:55.011Z,2.14
2022-11-24T01:23:28.213Z,2.15
2022-11-24T01:24:01.481Z,2.19
2022-11-24T01:24:34.856Z,2.18
2022-11-24T01:25:10.845Z,2.21
2022-11-24T01:25:44.052Z,2.22
2022-11-24T01:26:20.472Z,2.24
2022-11-24T01:26:53.936Z,2.25
2022-11-24T01:27:27.175Z,2.27
2022-11-24T01:28:00.601Z,2.27
2022-11-24T01:28:40.552Z,2.25
2022-11-24T01:29:20.008Z,2.24
2022-11-24T01:29:53.888Z,2.24
2022-11-24T01:30:27.452Z,2.24
2022-11-24T01:31:02.984Z,2.25
2022-11-24T01:31:37.228Z,2.25
2022-11-24T01:32:10.607Z,2.26
2022-11-24T01:32:44.087Z,2.27
2022-11-24T01:33:18.114Z,2.21
2022-11-24T01:33:52.747Z,2.26
2022-11-24T01:34:26.467Z,2.31
2022-11-24T01:35:01.468Z,2.34
2022-11-24T01:35:35.306Z,2.36
2022-11-24T01:36:08.980Z,2.35
2022-11-24T01:36:42.936Z,2.35
2022-11-24T01:37:16.373Z,2.35
2022-11-24T01:37:50.089Z,2.42
2022-11-24T01:38:27.148Z,2.40
2022-11-24T01:39:00.904Z,2.38
2022-11-24T01:39:34.747Z,2.38
2022-11-24T01:40:09.502Z,2.37
2022-11-24T01:40:43.555Z,2.42
2022-11-24T01:41:24.071Z,2.43
2022-11-24T01:42:01.646Z,2.42
2022-11-24T01:42:53.417Z,2.38
2022-11-24T01:43:26.892Z,2.35
2022-11-24T01:44:00.630Z,2.29
2022-11-24T01:44:34.595Z,2.37
2022-11-24T01:45:43.620Z,2.42
2022-11-24T01:46:36.892Z,2.32
2022-11-24T01:47:16.061Z,2.33
2022-11-24T01:47:49.824Z,2.31
2022-11-24T01:48:29.670Z,2.32
2022-11-24T01:49:12.103Z,2.30
2022-11-24T01:49:51.539Z,2.34
2022-11-24T01:50:25.173Z,2.35
2022-11-24T01:51:12.866Z,2.38
2022-11-24T01:51:55.840Z,2.37
2022-11-24T01:52:29.128Z,2.36
2022-11-24T01:53:02.877Z,2.38
2022-11-24T01:53:39.243Z,2.43
2022-11-24T01:54:16.637Z,2.45
2022-11-24T01:54:56.692Z,2.44
2022-11-24T01:55:34.889Z,2.45
2022-11-24T01:56:09.484Z,2.44
2022-11-24T01:56:46.655Z,2.45
2022-11-24T01:57:26.823Z,2.38
2022-11-24T01:58:03.420Z,2.34
2022-11-24T01:58:38.066Z,2.32
2022-11-24T01:59:14.401Z,2.31
2022-11-24T01:59:51.592Z,2.32
2022-11-24T02:00:26.564Z,2.33
2022-11-24T02:01:00.839Z,2.34
2022-11-24T02:01:35.020Z,2.34
2022-11-24T02:02:09.545Z,2.37
2022-11-24T02:02:45.101Z,2.39
2022-11-24T02:03:30.332Z,2.42
2022-11-24T02:04:10.758Z,2.43
2022-11-24T02:04:46.082Z,2.41
2022-11-24T02:05:29.003Z,2.41
2022-11-24T02:06:08.998Z,2.36
2022-11-24T02:06:45.596Z,2.43
2022-11-24T02:07:19.679Z,2.45
2022-11-24T02:07:56.039Z,2.42
2022-11-24T02:08:44.261Z,2.45
2022-11-24T02:09:26.625Z,2.46
2022-11-24T02:10:06.405Z,2.46
2022-11-24T02:10:39.744Z,2.49
2022-11-24T02:11:16.697Z,2.47
2022-11-24T02:11:50.200Z,2.44
2022-11-24T02:12:26.668Z,2.43
2022-11-24T02:13:00.974Z,2.43
2022-11-24T02:13:39.092Z,2.43
2022-11-24T02:14:16.094Z,2.43
2022-11-24T02:14:50.058Z,2.44
2022-11-24T02:15:24.726Z,2.45
2022-11-24T02:15:58.093Z,2.45
2022-11-24T02:16:32.634Z,2.47
2022-11-24T02:17:05.920Z,2.47
2022-11-24T02:17:39.286Z,2.48
2022-11-24T02:18:12.675Z,2.51
2022-11-24T02:18:46.347Z,2.53
2022-11-24T02:19:35.135Z,2.56
2022-11-24T02:20:10.743Z,2.53
2022-11-24T02:20:44.100Z,2.53
2022-11-24T02:21:18.516Z,2.54
2022-11-24T02:21:51.967Z,2.58
2022-11-24T02:22:35.333Z,2.59
2022-11-24T02:23:29.308Z,2.60
2022-11-24T02:25:01.767Z,2.56
2022-11-24T02:25:41.195Z,2.46
2022-11-24T02:26:35.674Z,2.45
2022-11-24T02:27:10.392Z,2.38
2022-11-24T02:27:50.762Z,2.43
2022-11-24T02:28:30.924Z,2.40
2022-11-24T02:29:04.587Z,2.37
2022-11-24T02:29:38.502Z,2.37
2022-11-24T02:30:13.083Z,2.39
2022-11-24T02:30:47.249Z,2.41
2022-11-24T02:31:20.731Z,2.43
2022-11-24T02:32:03.498Z,2.44
2022-11-24T02:32:40.517Z,2.46
2022-11-24T02:33:14.069Z,2.46
2022-11-24T02:33:50.088Z,2.45
2022-11-24T02:34:23.372Z,2.44
2022-11-24T02:35:05.592Z,2.45
2022-11-24T02:35:39.223Z,2.44
2022-11-24T02:36:14.773Z,2.43
2022-11-24T02:36:48.043Z,2.44
2022-11-24T02:37:21.271Z,2.44
2022-11-24T02:37:54.693Z,2.48
2022-11-24T02:38:33.025Z,2.47
2022-11-24T02:39:12.956Z,2.47
2022-11-24T02:39:46.805Z,2.46
2022-11-24T02:40:26.250Z,2.39
2022-11-24T02:41:04.301Z,2.46
2022-11-24T02:41:38.832Z,2.41
2022-11-24T02:42:14.068Z,2.48
2022-11-24T02:42:47.852Z,2.48
2022-11-24T02:43:23.897Z,2.48
2022-11-24T02:44:02.133Z,2.50
2022-11-24T02:44:44.507Z,2.49
2022-11-24T02:45:18.971Z,2.51
2022-11-24T02:45:56.399Z,2.50
2022-11-24T02:46:30.242Z,2.51
2022-11-24T02:47:09.598Z,2.53
2022-11-24T02:47:43.993Z,2.54
2022-11-24T02:48:17.959Z,2.56
2022-11-24T02:48:52.357Z,2.57
2022-11-24T02:49:28.374Z,2.58
2022-11-24T02:50:02.539Z,2.60
2022-11-24T02:50:36.586Z,2.57
2022-11-24T02:51:11.782Z,2.60
2022-11-24T02:51:46.224Z,2.60
2022-11-24T02:52:20.169Z,2.61
2022-11-24T02:52:53.820Z,2.55
2022-11-24T02:53:27.244Z,2.67
2022-11-24T02:54:01.447Z,2.67
2022-11-24T02:54:37.538Z,2.65
2022-11-24T02:55:17.596Z,2.65
2022-11-24T02:55:53.384Z,2.64
2022-11-24T02:56:27.411Z,2.65
2022-11-24T02:57:00.944Z,2.67
2022-11-24T02:57:34.442Z,2.66
2022-11-24T02:58:08.213Z,2.64
2022-11-24T02:58:41.651Z,2.62
2022-11-24T02:59:17.113Z,2.62
2022-11-24T02:59:50.698Z,2.61
2022-11-24T03:00:24.497Z,2.62
2022-11-24T03:00:58.337Z,2.63
2022-11-24T03:01:32.006Z,2.63
2022-11-24T03:02:05.704Z,2.65
2022-11-24T03:02:39.410Z,2.71
2022-11-24T03:03:13.388Z,2.65
2022-11-24T03:03:47.358Z,2.60
2022-11-24T03:04:21.162Z,2.59
2022-11-24T03:04:55.023Z,2.58
2022-11-24T03:05:28.782Z,2.61
2022-11-24T03:06:02.871Z,2.60
2022-11-24T03:06:37.021Z,2.62
2022-11-24T03:07:11.216Z,2.64
2022-11-24T03:07:44.862Z,2.63
2022-11-24T03:08:20.014Z,2.63
2022-11-24T03:08:54.312Z,2.62
2022-11-24T03:09:27.897Z,2.62
2022-11-24T03:10:01.682Z,2.62
2022-11-24T03:10:35.813Z,2.62
2022-11-24T03:11:09.776Z,2.63
2022-11-24T03:15:31.275Z,2.45
2022-11-24T03:16:08.791Z,2.40
2022-11-24T03:16:42.101Z,2.41
2022-11-24T03:17:16.146Z,2.41
2022-11-24T03:17:50.462Z,2.40
2022-11-24T03:18:23.823Z,2.44
2022-11-24T03:18:56.981Z,2.46
2022-11-24T03:19:30.252Z,2.47
2022-11-24T03:20:05.108Z,2.50
2022-11-24T03:20:38.847Z,2.52
2022-11-24T03:21:12.460Z,2.55
2022-11-24T03:21:45.932Z,2.54
2022-11-24T03:22:24.583Z,2.55
2022-11-24T03:22:57.820Z,2.54
2022-11-24T03:23:31.077Z,2.55
2022-11-24T03:24:06.636Z,2.56
2022-11-24T03:24:40.382Z,2.57
2022-11-24T03:25:16.091Z,2.59
2022-11-24T03:25:49.319Z,2.60
2022-11-24T03:26:24.948Z,2.62
2022-11-24T03:26:58.218Z,2.62
2022-11-24T03:27:32.197Z,2.64
2022-11-24T03:28:05.573Z,2.65
2022-11-24T03:28:39.253Z,2.65
2022-11-24T03:29:12.539Z,2.68
2022-11-24T03:29:46.342Z,2.65
2022-11-24T03:30:20.311Z,2.63
2022-11-24T03:30:54.496Z,2.65
2022-11-24T03:31:28.264Z,2.68
2022-11-24T03:32:03.109Z,2.71
2022-11-24T03:32:37.343Z,2.66
2022-11-24T03:33:11.439Z,2.62
2022-11-24T03:33:45.178Z,2.71
2022-11-24T03:34:18.939Z,2.60
2022-11-24T03:34:55.169Z,2.63
2022-11-24T03:35:28.810Z,2.64
2022-11-24T03:36:06.054Z,2.65
2022-11-24T03:36:42.085Z,2.65
2022-11-24T03:37:16.186Z,2.61
2022-11-24T03:37:50.122Z,2.63
2022-11-24T03:38:25.071Z,2.60
2022-11-24T03:38:58.636Z,2.60
2022-11-24T03:39:33.520Z,2.56
2022-11-24T03:40:15.198Z,2.55
2022-11-24T03:40:50.030Z,2.51
2022-11-24T03:41:24.046Z,2.43
2022-11-24T03:41:57.845Z,2.51
2022-11-24T03:42:31.727Z,2.51
2022-11-24T03:43:05.621Z,2.50
2022-11-24T03:43:43.788Z,2.52
2022-11-24T03:44:18.757Z,2.52
2022-11-24T03:44:55.730Z,2.42
2022-11-24T03:45:45.326Z,2.47
2022-11-24T03:46:19.992Z,2.50
2022-11-24T03:46:54.017Z,2.49
2022-11-24T03:47:27.804Z,2.47
2022-11-24T03:48:02.100Z,2.48
2022-11-24T03:48:36.010Z,2.50
2022-11-24T03:49:10.335Z,2.46
2022-11-24T03:49:44.624Z,2.51
2022-11-24T03:50:18.586Z,2.54
2022-11-24T03:51:00.085Z,2.50
2022-11-24T03:51:34.381Z,2.46
2022-11-24T03:52:09.278Z,2.38
2022-11-24T03:52:43.121Z,2.47
2022-11-24T03:53:16.792Z,2.40
2022-11-24T03:53:57.774Z,2.41
2022-11-24T03:54:31.446Z,2.39
2022-11-24T03:55:05.428Z,2.43
2022-11-24T03:55:39.411Z,2.40
2022-11-24T03:56:13.686Z,2.42
2022-11-24T03:56:47.974Z,2.46
2022-11-24T03:57:21.746Z,2.45
2022-11-24T03:57:55.274Z,2.45
2022-11-24T03:58:29.606Z,2.38
2022-11-24T03:59:05.881Z,2.37
2022-11-24T03:59:39.969Z,2.40
2022-11-24T04:00:13.849Z,2.39
2022-11-24T04:00:51.769Z,2.33
2022-11-24T04:01:25.198Z,2.32
2022-11-24T04:01:58.594Z,2.32
2022-11-24T04:02:32.033Z,2.39
2022-11-24T04:03:05.554Z,2.40
2022-11-24T04:03:39.297Z,2.40
2022-11-24T04:04:13.802Z,2.37
2022-11-24T04:04:50.973Z,2.37
2022-11-24T04:05:25.564Z,2.36
2022-11-24T04:05:59.674Z,2.38
2022-11-24T04:06:35.206Z,2.38
2022-11-24T04:07:09.137Z,2.40
2022-11-24T04:07:44.992Z,2.40
2022-11-24T04:08:19.653Z,2.37
2022-11-24T04:08:53.685Z,2.47
2022-11-24T04:09:27.030Z,2.39
2022-11-24T04:10:00.924Z,2.41
2022-11-24T04:10:37.334Z,2.37
2022-11-24T04:11:36.607Z,2.39
2022-11-24T04:12:42.822Z,2.30
2022-11-24T04:13:18.560Z,2.19
2022-11-24T04:13:53.139Z,2.22
2022-11-24T04:14:27.110Z,2.30
2022-11-24T04:15:01.100Z,2.28
2022-11-24T04:15:35.202Z,2.26
2022-11-24T04:16:11.566Z,2.26
2022-11-24T04:16:46.879Z,2.31
2022-11-24T04:17:20.903Z,2.31
2022-11-24T04:17:56.386Z,2.28
2022-11-24T04:18:30.543Z,2.33
2022-11-24T04:19:04.868Z,2.33
2022-11-24T04:19:39.943Z,2.31
2022-11-24T04:20:14.176Z,2.31
2022-11-24T04:20:50.895Z,2.31
2022-11-24T04:21:24.469Z,2.31
2022-11-24T04:21:57.957Z,2.29
2022-11-24T04:22:37.456Z,2.29
2022-11-24T04:23:11.837Z,2.30
2022-11-24T04:23:45.659Z,2.34
2022-11-24T04:24:19.664Z,2.43
2022-11-24T04:24:53.542Z,2.29
2022-11-24T04:25:27.631Z,2.35
2022-11-24T04:26:01.500Z,2.43
2022-11-24T04:26:36.019Z,2.40
2022-11-24T04:27:09.804Z,2.46
2022-11-24T04:27:44.109Z,2.29
2022-11-24T04:28:17.701Z,2.29
2022-11-24T04:28:51.299Z,2.34
2022-11-24T04:29:25.105Z,2.32
2022-11-24T04:29:59.077Z,2.30
2022-11-24T04:30:33.543Z,2.37
2022-11-24T04:31:07.843Z,2.37
2022-11-24T04:31:41.434Z,2.41
2022-11-24T04:32:14.924Z,2.39
2022-11-24T04:32:48.852Z,2.39
2022-11-24T04:33:22.961Z,2.42
2022-11-24T04:33:56.506Z,2.42
2022-11-24T04:34:29.949Z,2.38
2022-11-24T04:35:04.783Z,2.39
2022-11-24T04:35:38.110Z,2.41
2022-11-24T04:36:11.719Z,2.41
2022-11-24T04:36:45.083Z,2.38
2022-11-24T04:37:18.373Z,2.36
2022-11-24T04:37:51.759Z,2.34
2022-11-24T04:39:23.250Z,2.34
2022-11-24T04:39:25.614Z,2.30
2022-11-24T04:40:00.151Z,2.29
2022-11-24T04:40:34.046Z,2.28
2022-11-24T04:41:07.382Z,2.30
2022-11-24T04:41:42.453Z,2.34
2022-11-24T04:42:15.811Z,2.33
2022-11-24T04:42:56.129Z,2.32
2022-11-24T04:43:30.724Z,2.32
2022-11-24T04:44:04.138Z,2.33
2022-11-24T04:44:37.505Z,2.34
2022-11-24T04:45:11.655Z,2.37
2022-11-24T04:45:45.497Z,2.37
2022-11-24T04:46:19.101Z,2.37
2022-11-24T04:46:52.846Z,2.36
2022-11-24T04:47:27.008Z,2.39
2022-11-24T04:48:01.629Z,2.42
2022-11-24T04:48:35.118Z,2.43
2022-11-24T04:49:11.962Z,2.42
2022-11-24T04:49:47.624Z,2.41
2022-11-24T04:50:21.496Z,2.42
2022-11-24T04:50:55.410Z,2.42
2022-11-24T04:51:29.046Z,2.43
2022-11-24T04:52:02.454Z,2.53
2022-11-24T04:52:38.514Z,2.47
2022-11-24T04:53:13.620Z,2.48
2022-11-24T04:53:49.660Z,2.45
2022-11-24T04:54:25.560Z,2.45
2022-11-24T04:54:59.028Z,2.43
2022-11-24T04:55:32.749Z,2.41
2022-11-24T04:56:07.076Z,2.42
2022-11-24T04:56:41.714Z,2.43
2022-11-24T04:57:25.105Z,2.48
2022-11-24T04:57:58.643Z,2.47
2022-11-24T04:58:32.404Z,2.50
2022-11-24T04:59:08.415Z,2.48
2022-11-24T04:59:42.620Z,2.45
2022-11-24T05:00:16.623Z,2.47
2022-11-24T05:00:50.695Z,2.46
2022-11-24T05:01:24.510Z,2.50
2022-11-24T05:01:58.251Z,2.48
2022-11-24T05:02:32.133Z,2.47
2022-11-24T05:03:06.496Z,2.42
2022-11-24T05:03:40.624Z,2.47
2022-11-24T05:04:19.533Z,2.52
2022-11-24T05:04:53.648Z,2.42
2022-11-24T05:05:30.037Z,2.49
2022-11-24T05:06:04.082Z,2.48
2022-11-24T05:06:40.734Z,2.44
2022-11-24T05:07:18.744Z,2.52
2022-11-24T05:07:56.209Z,2.50
2022-11-24T05:08:30.073Z,2.58
2022-11-24T05:09:04.379Z,2.54
2022-11-24T05:09:59.616Z,2.55
2022-11-24T05:10:37.660Z,2.51
2022-11-24T05:11:11.699Z,2.51
2022-11-24T05:11:46.190Z,2.56
2022-11-24T05:12:20.173Z,2.64
2022-11-24T05:12:56.236Z,2.61
2022-11-24T05:13:29.661Z,2.58
2022-11-24T05:14:03.312Z,2.56
2022-11-24T05:14:36.888Z,2.59
2022-11-24T05:15:11.151Z,2.61
2022-11-24T05:15:47.064Z,2.62
2022-11-24T05:16:20.535Z,2.60
2022-11-24T05:16:55.201Z,2.56
2022-11-24T05:17:34.884Z,2.56
2022-11-24T05:18:11.316Z,2.59
2022-11-24T05:18:44.999Z,2.57
2022-11-24T05:19:18.584Z,2.58
2022-11-24T05:19:52.135Z,2.60
2022-11-24T05:20:26.142Z,2.69
2022-11-24T05:20:59.612Z,2.62
2022-11-24T05:21:33.353Z,2.68
2022-11-24T05:22:11.098Z,2.65
2022-11-24T05:22:45.343Z,2.61
2022-11-24T05:27:30.753Z,2.43
2022-11-24T05:28:08.998Z,2.46
2022-11-24T05:28:42.542Z,2.50
2022-11-24T05:29:15.874Z,2.51
2022-11-24T05:29:49.338Z,2.49
2022-11-24T05:30:23.020Z,2.50
2022-11-24T05:31:01.128Z,2.50
2022-11-24T05:31:34.608Z,2.51
2022-11-24T05:32:07.945Z,2.52
2022-11-24T05:32:41.390Z,2.51
2022-11-24T05:33:19.415Z,2.55
2022-11-24T05:33:52.913Z,2.59
2022-11-24T05:34:26.650Z,2.57
2022-11-24T05:35:02.251Z,2.61
2022-11-24T05:35:36.676Z,2.63
2022-11-24T05:36:33.219Z,2.65
2022-11-24T05:37:07.017Z,2.57
2022-11-24T05:37:40.348Z,2.57
2022-11-24T05:38:14.313Z,2.57
2022-11-24T05:38:47.521Z,2.61
2022-11-24T05:39:24.145Z,2.64
2022-11-24T05:39:57.595Z,2.66
2022-11-24T05:40:31.864Z,2.66
2022-11-24T05:41:06.353Z,2.69
2022-11-24T05:41:39.594Z,2.62
2022-11-24T05:42:34.986Z,2.66
2022-11-24T05:43:15.329Z,2.64
2022-11-24T05:43:48.780Z,2.64
2022-11-24T05:44:23.137Z,2.66
2022-11-24T05:44:57.619Z,2.73
2022-11-24T05:45:32.885Z,2.75
2022-11-24T05:46:06.401Z,2.69
2022-11-24T05:46:39.819Z,2.74
2022-11-24T05:47:13.298Z,2.79
2022-11-24T05:47:51.306Z,2.80
2022-11-24T05:48:25.249Z,2.69
2022-11-24T05:48:59.039Z,2.80
2022-11-24T05:49:35.538Z,2.81
2022-11-24T05:50:16.212Z,2.77
2022-11-24T05:51:05.143Z,2.81
2022-11-24T05:51:45.001Z,2.78
2022-11-24T05:52:19.462Z,2.77
2022-11-24T05:52:53.510Z,2.77
2022-11-24T05:53:30.704Z,2.83
2022-11-24T05:54:04.583Z,2.83
2022-11-24T05:54:38.200Z,2.90
2022-11-24T05:55:12.756Z,2.88
2022-11-24T05:55:46.333Z,2.85
2022-11-24T05:56:19.785Z,2.84
2022-11-24T05:56:54.228Z,2.86
2022-11-24T05:57:28.371Z,2.87
2022-11-24T05:58:04.145Z,2.89
2022-11-24T05:58:37.467Z,2.91
2022-11-24T05:59:11.299Z,2.93
2022-11-24T05:59:44.841Z,2.97
2022-11-24T06:00:20.305Z,3.00
2022-11-24T06:00:53.755Z,2.99
2022-11-24T06:01:27.813Z,2.96
2022-11-24T06:02:01.653Z,2.97
2022-11-24T06:02:35.374Z,2.98
2022-11-24T06:03:10.998Z,2.99
2022-11-24T06:03:46.853Z,2.99
2022-11-24T06:04:20.347Z,3.01
2022-11-24T06:04:53.877Z,2.99
2022-11-24T06:05:28.563Z,3.01
2022-11-24T06:06:02.515Z,3.03
2022-11-24T06:06:36.573Z,3.02
2022-11-24T06:07:13.363Z,3.01
2022-11-24T06:07:46.814Z,3.06
2022-11-24T06:08:22.949Z,3.08
2022-11-24T06:08:59.118Z,3.08
2022-11-24T06:09:32.521Z,3.11
2022-11-24T06:10:09.188Z,3.06
2022-11-24T06:10:42.658Z,3.00
2022-11-24T06:11:19.725Z,2.99
2022-11-24T06:11:53.353Z,3.03
2022-11-24T06:12:26.783Z,3.04
2022-11-24T06:13:04.319Z,3.05
2022-11-24T06:13:45.749Z,3.03
2022-11-24T06:14:19.404Z,3.04
2022-11-24T06:14:52.896Z,3.03
2022-11-24T06:15:26.176Z,3.04
2022-11-24T06:15:59.774Z,3.05
2022-11-24T06:16:33.629Z,3.06
2022-11-24T06:17:07.224Z,3.05
2022-11-24T06:17:42.558Z,3.08
2022-11-24T06:18:15.893Z,3.11
2022-11-24T06:18:49.737Z,3.11
2022-11-24T06:19:23.169Z,3.09
2022-11-24T06:19:56.621Z,3.11
2022-11-24T06:20:32.820Z,3.16
2022-11-24T06:21:11.828Z,3.15
2022-11-24T06:21:45.624Z,3.11
2022-11-24T06:22:19.628Z,3.10
2022-11-24T06:22:53.191Z,3.15
2022-11-24T06:23:26.503Z,3.17
2022-11-24T06:23:59.809Z,3.14
2022-11-24T06:24:33.254Z,3.11
2022-11-24T06:25:07.189Z,3.10
2022-11-24T06:25:40.689Z,3.17
2022-11-24T06:26:14.013Z,3.17
2022-11-24T06:26:47.595Z,3.12
2022-11-24T06:27:33.025Z,3.11
2022-11-24T06:28:07.108Z,3.09
2022-11-24T06:28:40.842Z,3.14
2022-11-24T06:29:14.175Z,3.22
2022-11-24T06:29:47.781Z,3.16
2022-11-24T06:30:21.138Z,3.14
2022-11-24T06:30:55.189Z,3.19
2022-11-24T06:31:28.730Z,3.22
2022-11-24T06:32:02.427Z,3.19
2022-11-24T06:32:36.053Z,3.20
2022-11-24T06:33:09.422Z,3.20
2022-11-24T06:33:42.758Z,3.24
2022-11-24T06:34:16.126Z,3.25
2022-11-24T06:34:49.510Z,3.31
2022-11-24T06:35:22.932Z,3.31
2022-11-24T06:36:01.855Z,3.26
2022-11-24T06:36:35.309Z,3.24
2022-11-24T06:37:09.162Z,3.30
2022-11-24T06:37:42.585Z,3.29
2022-11-24T06:38:21.464Z,3.25
2022-11-24T06:38:57.762Z,3.24
2022-11-24T06:39:31.248Z,3.30
2022-11-24T06:40:06.233Z,3.32
2022-11-24T06:40:39.655Z,3.27
2022-11-24T06:41:15.713Z,3.28
2022-11-24T06:41:52.728Z,3.28
2022-11-24T06:42:26.089Z,3.32
2022-11-24T06:42:59.546Z,3.26
2022-11-24T06:43:35.844Z,3.23
2022-11-24T06:44:09.474Z,3.26
2022-11-24T06:44:42.907Z,3.25
2022-11-24T06:45:16.588Z,3.23
2022-11-24T06:45:52.282Z,3.24
2022-11-24T06:46:25.695Z,3.26
2022-11-24T06:46:59.048Z,3.25
2022-11-24T06:47:32.495Z,3.27
2022-11-24T06:48:06.208Z,3.27
2022-11-24T06:48:39.647Z,3.27
2022-11-24T06:50:43.828Z,3.23
2022-11-24T06:51:19.748Z,3.15
2022-11-24T06:51:55.138Z,3.14
2022-11-24T06:52:28.582Z,3.17
2022-11-24T06:53:01.901Z,3.17
2022-11-24T06:53:38.288Z,3.16
2022-11-24T06:54:15.503Z,3.17
2022-11-24T06:54:49.158Z,3.16
2022-11-24T06:55:22.689Z,3.18
2022-11-24T06:56:01.166Z,3.18
2022-11-24T06:56:34.644Z,3.21
2022-11-24T06:57:08.021Z,3.21
2022-11-24T06:57:41.402Z,3.24
2022-11-24T06:58:14.775Z,3.35
2022-11-24T06:58:50.254Z,3.38
2022-11-24T06:59:23.615Z,3.31
2022-11-24T06:59:58.708Z,3.29
2022-11-24T07:00:32.504Z,3.30
2022-11-24T07:01:06.371Z,3.29
2022-11-24T07:01:39.926Z,3.27
2022-11-24T07:02:13.216Z,3.28
2022-11-24T07:02:46.549Z,3.29
2022-11-24T07:03:20.706Z,3.33
2022-11-24T07:03:56.037Z,3.32
2022-11-24T07:04:29.558Z,3.35
2022-11-24T07:05:02.909Z,3.49
2022-11-24T07:05:36.190Z,3.43
2022-11-24T07:06:09.604Z,3.43
2022-11-24T07:06:43.353Z,3.42
2022-11-24T07:07:16.668Z,3.40
2022-11-24T07:07:51.081Z,3.36
2022-11-24T07:08:25.606Z,3.33
2022-11-24T07:08:59.012Z,3.37
2022-11-24T07:09:32.297Z,3.36
2022-11-24T07:10:06.134Z,3.31
2022-11-24T07:10:39.744Z,3.33
2022-11-24T07:11:16.541Z,3.35
2022-11-24T07:11:49.894Z,3.36
2022-11-24T07:12:24.335Z,3.41
2022-11-24T07:12:57.635Z,3.39
2022-11-24T07:13:31.214Z,3.41
2022-11-24T07:14:04.755Z,3.41
2022-11-24T07:14:38.105Z,3.43
2022-11-24T07:15:11.733Z,3.47
2022-11-24T07:15:45.103Z,3.47
2022-11-24T07:16:23.924Z,3.46
2022-11-24T07:16:57.611Z,3.44
2022-11-24T07:17:31.082Z,3.43
2022-11-24T07:18:04.938Z,3.50
2022-11-24T07:18:38.198Z,3.52
2022-11-24T07:19:11.529Z,3.51
2022-11-24T07:19:45.244Z,3.50
2022-11-24T07:20:18.899Z,3.50
2022-11-24T07:20:52.155Z,3.57
2022-11-24T07:21:26.689Z,3.65
2022-11-24T07:22:00.184Z,3.59
2022-11-24T07:22:33.798Z,3.58
2022-11-24T07:23:07.192Z,3.53
2022-11-24T07:23:41.215Z,3.51
2022-11-24T07:24:14.645Z,3.56
2022-11-24T07:24:47.851Z,3.58
2022-11-24T07:25:21.149Z,3.57
2022-11-24T07:25:54.589Z,3.59
2022-11-24T07:26:27.927Z,3.60
2022-11-24T07:27:01.266Z,3.56
2022-11-24T07:27:34.933Z,3.56
2022-11-24T07:28:09.116Z,3.55
2022-11-24T07:28:42.504Z,3.57
2022-11-24T07:29:16.026Z,3.60
2022-11-24T07:29:49.255Z,3.57
2022-11-24T07:30:22.779Z,3.57
2022-11-24T07:30:56.504Z,3.59
2022-11-24T07:31:29.849Z,3.61
2022-11-24T07:32:05.678Z,3.72
2022-11-24T07:32:39.386Z,3.65
2022-11-24T07:33:12.809Z,3.64
2022-11-24T07:33:50.381Z,3.67
2022-11-24T07:34:23.652Z,3.68
2022-11-24T07:34:57.078Z,3.66
2022-11-24T07:35:31.006Z,3.69
2022-11-24T07:36:06.511Z,3.75
2022-11-24T07:36:39.790Z,3.74
2022-11-24T07:37:13.238Z,3.76
2022-11-24T07:37:47.204Z,3.77
2022-11-24T07:38:20.877Z,3.75
2022-11-24T07:38:54.412Z,3.78
2022-11-24T07:39:27.746Z,3.83
2022-11-24T07:40:00.984Z,3.78
2022-11-24T07:40:34.255Z,3.78
2022-11-24T07:41:11.125Z,3.79
2022-11-24T07:41:44.560Z,3.81
2022-11-24T07:42:18.006Z,3.84
2022-11-24T07:42:51.325Z,3.87
2022-11-24T07:43:24.614Z,3.88
2022-11-24T07:43:57.876Z,3.86
2022-11-24T07:44:31.438Z,3.86
2022-11-24T07:45:06.933Z,3.91
2022-11-24T07:45:40.332Z,3.90
2022-11-24T07:46:16.078Z,3.88
2022-11-24T07:46:51.400Z,3.91
2022-11-24T07:47:24.884Z,3.93
2022-11-24T07:47:58.189Z,3.93
2022-11-24T07:48:32.268Z,3.96
2022-11-24T07:49:05.638Z,4.00
2022-11-24T07:49:39.153Z,3.99
2022-11-24T07:50:13.168Z,3.98
2022-11-24T07:50:48.867Z,3.98
2022-11-24T07:51:25.830Z,3.97
2022-11-24T07:51:59.078Z,3.97
2022-11-24T07:52:32.339Z,4.01
2022-11-24T07:53:05.645Z,3.99
2022-11-24T07:53:39.583Z,3.97
2022-11-24T07:54:13.024Z,3.95
2022-11-24T07:54:46.481Z,3.98
2022-11-24T07:55:19.913Z,4.04
2022-11-24T07:55:58.244Z,4.06
2022-11-24T07:56:31.487Z,4.04
2022-11-24T07:57:04.784Z,4.04
2022-11-24T07:57:38.073Z,4.05
2022-11-24T07:58:11.356Z,4.06
2022-11-24T07:58:49.679Z,4.09
2022-11-24T07:59:26.004Z,4.08
2022-11-24T07:59:59.290Z,4.09
2022-11-24T08:00:32.890Z,4.12
2022-11-24T08:01:11.777Z,4.15
2022-11-24T08:01:45.333Z,4.13
2022-11-24T08:02:19.764Z,4.17
2022-11-24T08:02:53.805Z,4.13